createdAt,value
2024-01-10T00:00:12.911Z,100284.60
2024-01-10T00:03:10.788Z,100282.00
2024-01-10T00:06:08.404Z,100280.60
2024-01-10T00:09:06.071Z,100276.00
2024-01-10T00:12:03.528Z,100272.80
2024-01-10T00:15:01.146Z,100271.20
2024-01-10T00:17:58.880Z,100270.20
2024-01-10T00:20:56.464Z,100272.00
2024-01-10T00:23:54.248Z,100270.80
2024-01-10T00:26:51.830Z,100257.00
2024-01-10T00:29:49.250Z,100261.40
2024-01-10T00:32:46.984Z,100256.20
2024-01-10T00:35:44.768Z,100254.40
2024-01-10T00:38:42.203Z,100260.00
2024-01-10T00:41:39.872Z,100262.60
2024-01-10T00:44:37.795Z,100265.40
2024-01-10T00:47:35.546Z,100262.80
2024-01-10T00:50:32.970Z,100260.60
2024-01-10T00:53:32.335Z,100260.60
2024-01-10T00:56:32.038Z,100258.00
2024-01-10T00:59:32.468Z,100263.20
2024-01-10T01:02:31.474Z,100267.20
2024-01-10T01:05:31.530Z,100270.40
2024-01-10T01:08:31.096Z,100269.20
2024-01-10T01:11:30.144Z,100264.80
2024-01-10T01:14:28.990Z,100264.20
2024-01-10T01:17:28.261Z,100261.80
2024-01-10T01:20:29.657Z,100267.00
2024-01-10T01:23:38.724Z,100268.20
2024-01-10T01:26:39.440Z,100270.20
2024-01-10T01:29:37.127Z,100275.40
2024-01-10T01:32:34.520Z,100268.00
2024-01-10T01:35:33.527Z,100269.20
2024-01-10T01:38:32.332Z,100262.20
2024-01-10T01:41:31.639Z,100262.60
2024-01-10T01:44:30.756Z,100262.40
2024-01-10T01:47:30.457Z,100259.20
2024-01-10T01:50:29.295Z,100261.20
2024-01-10T01:53:28.663Z,100254.40
2024-01-10T01:56:27.429Z,100254.20
2024-01-10T01:59:25.141Z,100259.60
2024-01-10T02:02:22.655Z,100255.80
2024-01-10T02:05:20.584Z,100261.60
2024-01-10T02:08:18.084Z,100258.20
2024-01-10T02:11:16.187Z,100258.00
2024-01-10T02:14:13.809Z,100257.60
2024-01-10T02:17:12.154Z,100257.00
2024-01-10T02:20:09.685Z,100258.60
2024-01-10T02:23:07.645Z,100259.40
2024-01-10T02:26:05.192Z,100254.80
2024-01-10T02:29:02.991Z,100258.80
2024-01-10T02:32:00.841Z,100255.20
2024-01-10T02:34:58.814Z,100261.80
2024-01-10T02:37:56.289Z,100255.20
2024-01-10T02:40:54.107Z,100258.60
2024-01-10T02:43:51.520Z,100255.80
2024-01-10T02:46:49.376Z,100256.20
2024-01-10T02:49:46.857Z,100254.00
2024-01-10T02:52:44.902Z,100253.20
2024-01-10T02:55:42.900Z,100250.80
2024-01-10T02:58:40.860Z,100252.80
2024-01-10T03:01:38.313Z,100251.20
2024-01-10T03:04:36.139Z,100253.00
2024-01-10T03:07:33.563Z,100254.20
2024-01-10T03:10:31.662Z,100250.00
2024-01-10T03:13:29.082Z,100246.40
2024-01-10T03:16:27.055Z,100244.20
2024-01-10T03:19:24.430Z,100247.40
2024-01-10T03:22:22.213Z,100250.00
2024-01-10T03:25:19.630Z,100248.80
2024-01-10T03:28:17.475Z,100251.20
2024-01-10T03:31:14.863Z,100252.40
2024-01-10T03:34:12.888Z,100245.60
2024-01-10T03:37:10.330Z,100239.60
2024-01-10T03:40:08.263Z,100240.20
2024-01-10T03:43:06.126Z,100236.80
2024-01-10T03:46:03.515Z,100242.20
2024-01-10T03:49:01.305Z,100242.80
2024-01-10T03:51:58.745Z,100244.40
2024-01-10T03:54:56.565Z,100245.20
2024-01-10T03:57:53.956Z,100243.80
2024-01-10T04:00:51.926Z,100238.60
2024-01-10T04:03:49.847Z,100233.00
2024-01-10T04:06:47.461Z,100235.40
2024-01-10T04:09:45.700Z,100233.80
2024-01-10T04:12:43.785Z,100237.20
2024-01-10T04:15:41.207Z,100242.40
2024-01-10T04:18:39.151Z,100242.20
2024-01-10T04:21:36.642Z,100242.60
2024-01-10T04:24:34.440Z,100243.60
2024-01-10T04:27:31.872Z,100243.00
2024-01-10T04:30:29.736Z,100236.40
2024-01-10T04:33:27.756Z,100227.60
2024-01-10T04:36:25.265Z,100229.40
2024-01-10T04:39:23.092Z,100235.80
2024-01-10T04:42:20.451Z,100234.00
2024-01-10T04:45:18.413Z,100228.20
2024-01-10T04:48:15.941Z,100221.40
2024-01-10T04:51:13.847Z,100223.80
2024-01-10T04:54:11.244Z,100228.60
2024-01-10T04:57:09.855Z,100224.80
2024-01-10T05:00:07.877Z,100230.60
2024-01-10T05:03:05.910Z,100229.00
2024-01-10T05:06:03.641Z,100223.40
2024-01-10T05:09:01.690Z,100223.20
2024-01-10T05:11:59.398Z,100226.40
2024-01-10T05:14:56.789Z,100223.60
2024-01-10T05:17:54.892Z,100229.80
2024-01-10T05:20:52.624Z,100227.00
2024-01-10T05:23:50.114Z,100225.40
2024-01-10T05:26:48.077Z,100229.20
2024-01-10T05:29:45.478Z,100224.40
2024-01-10T05:32:43.495Z,100218.80
2024-01-10T05:35:40.915Z,100221.20
2024-01-10T05:38:38.606Z,100228.80
2024-01-10T05:41:37.679Z,100218.20
2024-01-10T05:44:36.822Z,100223.80
2024-01-10T05:47:34.344Z,100221.60
2024-01-10T05:50:32.395Z,100223.40
2024-01-10T05:53:30.054Z,100214.00
2024-01-10T05:56:29.510Z,100218.20
2024-01-10T05:59:29.560Z,100216.00
2024-01-10T06:02:28.540Z,100215.60
2024-01-10T06:05:26.138Z,100214.80
2024-01-10T06:08:26.959Z,100218.40
2024-01-10T06:11:24.513Z,100212.40
2024-01-10T06:14:22.494Z,100219.00
2024-01-10T06:17:20.070Z,100217.80
2024-01-10T06:20:18.128Z,100217.40
2024-01-10T06:23:15.603Z,100214.80
2024-01-10T06:26:13.632Z,100219.40
2024-01-10T06:29:11.140Z,100221.00
2024-01-10T06:32:09.314Z,100218.20
2024-01-10T06:35:06.897Z,100217.00
2024-01-10T06:38:05.653Z,100225.00
2024-01-10T06:41:03.220Z,100228.80
2024-01-10T06:44:04.919Z,100232.80
2024-01-10T06:47:02.528Z,100230.20
2024-01-10T06:50:00.391Z,100234.00
2024-01-10T06:52:58.540Z,100239.40
2024-01-10T06:55:56.020Z,100241.60
2024-01-10T06:58:56.077Z,100245.00
2024-01-10T07:01:53.511Z,100244.80
2024-01-10T07:04:51.912Z,100243.60
2024-01-10T07:07:51.292Z,100244.40
2024-01-10T07:10:49.418Z,100243.60
2024-01-10T07:13:48.193Z,100251.00
2024-01-10T07:16:48.689Z,100244.80
2024-01-10T07:19:47.806Z,100251.00
2024-01-10T07:22:45.812Z,100247.60
2024-01-10T07:25:43.360Z,100246.20
2024-01-10T07:28:40.830Z,100251.60
2024-01-10T07:31:38.815Z,100253.00
2024-01-10T07:34:36.504Z,100259.60
2024-01-10T07:37:33.947Z,100262.00
2024-01-10T07:40:31.459Z,100262.80
2024-01-10T07:43:30.341Z,100259.40
2024-01-10T07:46:28.363Z,100262.00
2024-01-10T07:49:26.228Z,100265.80
2024-01-10T07:52:25.420Z,100267.20
2024-01-10T07:55:23.604Z,100264.40
2024-01-10T07:58:21.049Z,100262.00
2024-01-10T08:01:18.726Z,100263.20
2024-01-10T08:04:16.697Z,100266.60
2024-01-10T08:07:14.945Z,100269.00
2024-01-10T08:10:12.360Z,100270.80
2024-01-10T08:13:10.487Z,100271.80
2024-01-10T08:16:10.353Z,100273.40
2024-01-10T08:19:08.348Z,100274.20
2024-01-10T08:22:05.820Z,100271.20
2024-01-10T08:25:04.641Z,100271.60
2024-01-10T08:28:02.117Z,100274.00
2024-01-10T08:31:04.386Z,100275.60
2024-01-10T08:34:04.006Z,100274.20
2024-01-10T08:37:01.907Z,100273.20
2024-01-10T08:40:00.173Z,100278.80
2024-01-10T08:42:58.086Z,100281.80
2024-01-10T08:45:55.480Z,100279.80
2024-01-10T08:48:54.299Z,100286.20
2024-01-10T08:51:51.870Z,100285.20
2024-01-10T08:54:50.168Z,100283.00
2024-01-10T08:57:48.283Z,100282.60
2024-01-10T09:00:46.261Z,100288.60
2024-01-10T09:03:43.739Z,100284.80
2024-01-10T09:06:41.747Z,100280.20
2024-01-10T09:09:39.290Z,100286.00
2024-01-10T09:12:37.134Z,100286.00
2024-01-10T09:15:34.550Z,100286.60
2024-01-10T09:18:32.484Z,100284.00
2024-01-10T09:21:29.905Z,100278.00
2024-01-10T09:24:29.930Z,100281.00
2024-01-10T09:27:27.847Z,100285.60
2024-01-10T09:30:25.632Z,100287.00
2024-01-10T09:33:24.098Z,100276.00
2024-01-10T09:36:22.091Z,100279.60
2024-01-10T09:39:19.523Z,100280.20
2024-01-10T09:42:17.524Z,100276.40
2024-01-10T09:45:15.138Z,100272.80
2024-01-10T09:48:13.206Z,100270.20
2024-01-10T09:51:11.057Z,100262.80
2024-01-10T09:54:08.788Z,100262.60
2024-01-10T09:57:07.005Z,100256.20
2024-01-10T10:00:06.980Z,100255.20
2024-01-10T10:03:04.616Z,100242.60
2024-01-10T10:06:02.513Z,100252.40
2024-01-10T10:09:00.080Z,100249.60
2024-01-10T10:11:58.682Z,100252.00
2024-01-10T10:14:56.533Z,100246.60
2024-01-10T10:17:55.367Z,100248.80
2024-01-10T10:20:53.373Z,100248.60
2024-01-10T10:23:50.863Z,100239.20
2024-01-10T10:26:48.657Z,100235.80
2024-01-10T10:29:48.462Z,100239.00
2024-01-10T10:32:46.820Z,100236.00
2024-01-10T10:35:47.324Z,100240.40
2024-01-10T10:38:47.034Z,100231.60
2024-01-10T10:41:44.507Z,100223.80
2024-01-10T10:44:43.246Z,100223.80
2024-01-10T10:47:41.641Z,100227.00
2024-01-10T10:50:40.478Z,100228.40
2024-01-10T10:53:38.093Z,100226.60
2024-01-10T10:56:36.455Z,100220.60
2024-01-10T10:59:34.431Z,100201.80
2024-01-10T11:02:32.557Z,100199.40
2024-01-10T11:05:31.202Z,100202.40
2024-01-10T11:08:29.219Z,100192.80
2024-01-10T11:11:26.845Z,100191.20
2024-01-10T11:14:26.279Z,100183.40
2024-01-10T11:17:24.698Z,100177.00
2024-01-10T11:20:22.304Z,100187.00
2024-01-10T11:23:20.224Z,100175.80
2024-01-10T11:26:17.821Z,100163.20
2024-01-10T11:29:15.813Z,100164.40
2024-01-10T11:32:13.731Z,100158.20
2024-01-10T11:35:12.788Z,100153.00
2024-01-10T11:38:12.216Z,100150.00
2024-01-10T11:41:10.880Z,100147.40
2024-01-10T11:44:08.799Z,100143.40
2024-01-10T11:47:06.502Z,100143.20
2024-01-10T11:50:05.217Z,100137.20
2024-01-10T11:53:04.329Z,100132.20
2024-01-10T11:56:02.688Z,100128.60
2024-01-10T11:59:00.735Z,100119.00
2024-01-10T12:01:58.773Z,100119.00
2024-01-10T12:04:56.428Z,100114.20
2024-01-10T12:07:54.654Z,100114.40
2024-01-10T12:10:52.183Z,100111.60
2024-01-10T12:13:50.217Z,100099.80
2024-01-10T12:16:47.702Z,100105.40
2024-01-10T12:19:47.357Z,100102.00
2024-01-10T12:22:45.212Z,100096.20
2024-01-10T12:25:43.130Z,100103.80
2024-01-10T12:28:40.561Z,100098.20
2024-01-10T12:31:38.512Z,100092.00
2024-01-10T12:34:36.042Z,100090.60
2024-01-10T12:37:33.955Z,100090.20
2024-01-10T12:40:31.604Z,100083.40
2024-01-10T12:43:29.505Z,100082.40
2024-01-10T12:46:26.935Z,100083.00
2024-01-10T12:49:24.411Z,100082.80
2024-01-10T12:52:24.223Z,100086.80
2024-01-10T12:55:23.314Z,100091.80
2024-01-10T12:58:20.898Z,100085.40
2024-01-10T13:01:18.695Z,100083.40
2024-01-10T13:04:16.176Z,100085.80
2024-01-10T13:07:14.100Z,100084.40
2024-01-10T13:10:11.472Z,100082.40
2024-01-10T13:13:09.360Z,100081.60
2024-01-10T13:16:07.343Z,100077.00
2024-01-10T13:19:04.986Z,100076.60
2024-01-10T13:22:05.592Z,100080.40
2024-01-10T13:25:04.828Z,100078.40
2024-01-10T13:28:02.658Z,100081.20
2024-01-10T13:31:00.205Z,100078.40
2024-01-10T13:33:58.335Z,100071.40
2024-01-10T13:36:56.394Z,100074.00
2024-01-10T13:39:53.781Z,100074.20
2024-01-10T13:42:51.767Z,100075.60
2024-01-10T13:45:49.184Z,100083.60
2024-01-10T13:48:47.107Z,100079.60
2024-01-10T13:51:47.876Z,100081.00
2024-01-10T13:54:45.650Z,100083.80
2024-01-10T13:57:43.585Z,100077.40
2024-01-10T14:00:44.600Z,100073.60
2024-01-10T14:03:42.885Z,100073.40
2024-01-10T14:06:40.348Z,100071.00
2024-01-10T14:09:38.451Z,100064.60
2024-01-10T14:12:35.882Z,100065.00
2024-01-10T14:15:33.696Z,100071.00
2024-01-10T14:18:31.158Z,100060.20
2024-01-10T14:21:29.135Z,100061.40
2024-01-10T14:24:26.933Z,100068.20
2024-01-10T14:27:24.775Z,100062.80
2024-01-10T14:30:22.584Z,100064.80
2024-01-10T14:33:20.485Z,100060.00
2024-01-10T14:36:18.146Z,100061.60
2024-01-10T14:39:16.852Z,100062.00
2024-01-10T14:42:14.847Z,100063.80
2024-01-10T14:45:13.112Z,100060.80
2024-01-10T14:48:10.596Z,100058.80
2024-01-10T14:51:08.560Z,100057.00
2024-01-10T14:54:05.944Z,100060.80
2024-01-10T14:57:04.705Z,100059.20
2024-01-10T15:00:02.235Z,100059.00
2024-01-10T15:03:02.832Z,100059.60
2024-01-10T15:06:04.041Z,100058.40
2024-01-10T15:09:04.476Z,100063.20
2024-01-10T15:12:02.129Z,100063.60
2024-01-10T15:15:01.545Z,100061.40
2024-01-10T15:17:59.047Z,100067.80
2024-01-10T15:20:57.007Z,100070.40
2024-01-10T15:23:54.674Z,100074.40
2024-01-10T15:26:53.933Z,100068.40
2024-01-10T15:29:56.796Z,100067.80
2024-01-10T15:33:00.639Z,100062.60
2024-01-10T15:35:59.435Z,100058.00
2024-01-10T15:38:57.026Z,100060.00
2024-01-10T15:41:55.377Z,100063.00
2024-01-10T15:44:52.991Z,100060.80
2024-01-10T15:47:50.838Z,100055.00
2024-01-10T15:50:48.283Z,100051.00
2024-01-10T15:53:46.569Z,100052.40
2024-01-10T15:56:44.509Z,100054.00
2024-01-10T15:59:42.924Z,100053.00
2024-01-10T16:02:41.835Z,100047.60
2024-01-10T16:05:39.349Z,100050.40
2024-01-10T16:08:37.218Z,100046.40
2024-01-10T16:11:34.670Z,100046.80
2024-01-10T16:14:33.481Z,100047.40
2024-01-10T16:17:32.193Z,100046.00
2024-01-10T16:20:29.785Z,100047.80
2024-01-10T16:23:27.896Z,100037.80
2024-01-10T16:26:25.386Z,100042.00
2024-01-10T16:29:23.264Z,100040.00
2024-01-10T16:32:20.719Z,100040.20
2024-01-10T16:35:18.968Z,100036.80
2024-01-10T16:38:16.504Z,100041.40
2024-01-10T16:41:14.903Z,100046.00
2024-01-10T16:44:12.408Z,100046.40
2024-01-10T16:47:10.794Z,100049.20
2024-01-10T16:50:08.609Z,100047.80
2024-01-10T16:53:06.608Z,100050.40
2024-01-10T16:56:04.734Z,100042.20
2024-01-10T16:59:02.597Z,100045.00
2024-01-10T17:02:00.831Z,100036.40
2024-01-10T17:04:58.910Z,100035.80
2024-01-10T17:07:57.308Z,100041.00
2024-01-10T17:10:55.426Z,100045.00
2024-01-10T17:13:53.335Z,100042.80
2024-01-10T17:16:50.996Z,100041.40
2024-01-10T17:19:49.700Z,100044.80
2024-01-10T17:22:47.475Z,100045.00
2024-01-10T17:25:45.547Z,100044.20
2024-01-10T17:28:43.240Z,100045.80
2024-01-10T17:31:41.492Z,100045.40
2024-01-10T17:34:39.941Z,100045.80
2024-01-10T17:37:37.961Z,100047.40
2024-01-10T17:40:35.366Z,100048.20
2024-01-10T17:43:33.459Z,100049.00
2024-01-10T17:46:32.524Z,100041.40
2024-01-10T17:49:30.450Z,100043.00
2024-01-10T17:52:28.098Z,100037.00
2024-01-10T17:55:25.943Z,100039.80
2024-01-10T17:58:24.125Z,100038.00
2024-01-10T18:01:23.685Z,100042.60
2024-01-10T18:04:21.801Z,100033.40
2024-01-10T18:07:19.862Z,100031.20
2024-01-10T18:10:17.294Z,100030.80
2024-01-10T18:13:16.338Z,100024.80
2024-01-10T18:16:14.140Z,100025.80
2024-01-10T18:19:13.692Z,100022.80
2024-01-10T18:22:11.382Z,100020.00
2024-01-10T18:25:08.920Z,100027.40
2024-01-10T18:28:06.945Z,100021.60
2024-01-10T18:31:06.034Z,100024.00
2024-01-10T18:34:04.703Z,100020.20
2024-01-10T18:37:02.364Z,100021.80
2024-01-10T18:40:00.104Z,100019.80
2024-01-10T18:42:57.546Z,100018.20
2024-01-10T18:45:55.910Z,100014.80
2024-01-10T18:48:53.375Z,100020.20
2024-01-10T18:51:50.977Z,100019.40
2024-01-10T18:54:48.768Z,100013.40
2024-01-10T18:57:48.915Z,100006.20
2024-01-10T19:00:47.224Z,100004.60
2024-01-10T19:03:45.078Z,100008.40
2024-01-10T19:06:43.741Z,100002.20
2024-01-10T19:09:41.512Z,99999.20
2024-01-10T19:12:39.581Z,100000.00
2024-01-10T19:15:37.313Z,99994.60
2024-01-10T19:18:35.512Z,99999.60
2024-01-10T19:21:33.547Z,99997.80
2024-01-10T19:24:31.256Z,99995.80
2024-01-10T19:27:29.279Z,100000.80
2024-01-10T19:30:26.959Z,99996.80
2024-01-10T19:33:25.789Z,99996.00
2024-01-10T19:36:27.004Z,99992.60
2024-01-10T19:39:26.341Z,99993.20
2024-01-10T19:42:24.006Z,99999.00
2024-01-10T19:45:23.349Z,99994.80
2024-01-10T19:48:21.957Z,100000.60
2024-01-10T19:51:20.182Z,99994.20
2024-01-10T19:54:18.274Z,100001.40
2024-01-10T19:57:15.931Z,99996.00
2024-01-10T20:00:13.945Z,99998.20
2024-01-10T20:03:12.248Z,100005.00
2024-01-10T20:06:10.599Z,100001.00
2024-01-10T20:09:09.420Z,100005.20
2024-01-10T20:12:07.342Z,100001.40
2024-01-10T20:15:05.342Z,99998.60
2024-01-10T20:18:03.262Z,99993.40
2024-01-10T20:21:01.353Z,99993.80
2024-01-10T20:23:59.049Z,99991.60
2024-01-10T20:26:56.748Z,99995.60
2024-01-10T20:29:54.804Z,99989.40
2024-01-10T20:32:52.718Z,99987.00
2024-01-10T20:35:51.518Z,99990.00
2024-01-10T20:38:49.213Z,99981.20
2024-01-10T20:41:47.928Z,99982.60
2024-01-10T20:44:48.361Z,99987.00
2024-01-10T20:47:46.580Z,99983.80
2024-01-10T20:50:44.423Z,99982.00
2024-01-10T20:53:42.614Z,99978.20
2024-01-10T20:56:40.398Z,99975.80
2024-01-10T20:59:38.597Z,99969.60
2024-01-10T21:02:36.390Z,99961.60
2024-01-10T21:05:34.653Z,99966.20
2024-01-10T21:08:32.600Z,99973.40
2024-01-10T21:11:30.821Z,99973.80
2024-01-10T21:14:28.596Z,99968.40
2024-01-10T21:17:27.586Z,99969.00
2024-01-10T21:20:25.377Z,99965.80
2024-01-10T21:23:23.513Z,99967.40
2024-01-10T21:26:21.238Z,99964.20
2024-01-10T21:29:19.346Z,99962.40
2024-01-10T21:32:19.508Z,99966.00
2024-01-10T21:35:17.672Z,99962.00
2024-01-10T21:38:15.425Z,99961.80
2024-01-10T21:41:14.181Z,99959.20
2024-01-10T21:44:11.973Z,99960.60
2024-01-10T21:47:10.629Z,99962.80
2024-01-10T21:50:10.556Z,99956.80
2024-01-10T21:53:09.244Z,99954.80
2024-01-10T21:56:10.279Z,99948.80
2024-01-10T21:59:08.404Z,99940.40
2024-01-10T22:02:06.697Z,99939.20
2024-01-10T22:05:05.749Z,99929.60
2024-01-10T22:08:05.824Z,99931.00
2024-01-10T22:11:05.030Z,99929.80
2024-01-10T22:14:03.260Z,99927.40
2024-01-10T22:17:01.228Z,99926.00
2024-01-10T22:19:59.329Z,99932.60
2024-01-10T22:22:57.024Z,99935.00
2024-01-10T22:25:56.385Z,99931.00
2024-01-10T22:28:54.240Z,99926.60
2024-01-10T22:31:52.411Z,99928.40
2024-01-10T22:34:50.463Z,99931.20
2024-01-10T22:37:49.090Z,99934.60
2024-01-10T22:40:46.765Z,99932.40
2024-01-10T22:43:44.729Z,99930.60
2024-01-10T22:46:42.749Z,99929.00
2024-01-10T22:49:40.386Z,99930.00
2024-01-10T22:52:39.640Z,99934.80
2024-01-10T22:55:37.744Z,99933.00
2024-01-10T22:58:35.711Z,99933.40
2024-01-10T23:01:33.430Z,99931.60
2024-01-10T23:04:31.540Z,99928.20
2024-01-10T23:07:29.296Z,99933.20
2024-01-10T23:10:27.417Z,99932.40
2024-01-10T23:13:25.386Z,99929.40
2024-01-10T23:16:23.958Z,99931.40
2024-01-10T23:19:22.071Z,99934.80
2024-01-10T23:22:20.320Z,99931.80
2024-01-10T23:25:18.808Z,99933.80
2024-01-10T23:28:16.528Z,99933.20
2024-01-10T23:31:14.530Z,99934.20
2024-01-10T23:34:14.388Z,99929.60
2024-01-10T23:37:12.733Z,99927.60
2024-01-10T23:40:11.009Z,99929.20
2024-01-10T23:43:15.712Z,99923.80
2024-01-10T23:46:21.985Z,99930.00
2024-01-10T23:49:19.744Z,99925.80
2024-01-10T23:52:17.731Z,99925.60
2024-01-10T23:55:15.386Z,99935.20
2024-01-10T23:58:13.257Z,99932.80
